sensor_id;sensor_type;location;lat;lon;timestamp;P1;durP1;ratioP1;P2;durP2;ratioP2
45296;SDS011;31040;51.622;10.420;2023-07-13T00:00:24;3.13;;;1.50;;
45296;SDS011;31040;51.622;10.420;2023-07-13T00:02:51;2.83;;;1.80;;
45296;SDS011;31040;51.622;10.420;2023-07-13T00:05:20;2.38;;;1.52;;
45296;SDS011;31040;51.622;10.420;2023-07-13T00:07:48;2.80;;;1.45;;
45296;SDS011;31040;51.622;10.420;2023-07-13T00:10:16;2.28;;;1.52;;
45296;SDS011;31040;51.622;10.420;2023-07-13T00:12:44;1.95;;;1.30;;
45296;SDS011;31040;51.622;10.420;2023-07-13T00:15:13;1.95;;;1.70;;
45296;SDS011;31040;51.622;10.420;2023-07-13T00:17:42;2.08;;;1.40;;
45296;SDS011;31040;51.622;10.420;2023-07-13T00:20:13;1.52;;;1.42;;
45296;SDS011;31040;51.622;10.420;2023-07-13T00:22:41;1.30;;;1.20;;
45296;SDS011;31040;51.622;10.420;2023-07-13T00:25:10;4.32;;;1.80;;
45296;SDS011;31040;51.622;10.420;2023-07-13T00:27:41;1.75;;;1.63;;
45296;SDS011;31040;51.622;10.420;2023-07-13T00:30:09;1.65;;;1.45;;
45296;SDS011;31040;51.622;10.420;2023-07-13T00:32:37;3.22;;;1.80;;
45296;SDS011;31040;51.622;10.420;2023-07-13T00:35:05;1.73;;;1.30;;
45296;SDS011;31040;51.622;10.420;2023-07-13T00:37:33;2.17;;;1.63;;
45296;SDS011;31040;51.622;10.420;2023-07-13T00:40:08;2.90;;;1.95;;
45296;SDS011;31040;51.622;10.420;2023-07-13T00:42:36;3.33;;;1.60;;
45296;SDS011;31040;51.622;10.420;2023-07-13T00:47:31;2.20;;;1.30;;
45296;SDS011;31040;51.622;10.420;2023-07-13T00:49:59;3.17;;;1.75;;
45296;SDS011;31040;51.622;10.420;2023-07-13T00:52:27;2.33;;;1.70;;
45296;SDS011;31040;51.622;10.420;2023-07-13T00:54:54;1.98;;;1.83;;
45296;SDS011;31040;51.622;10.420;2023-07-13T00:57:23;2.53;;;1.98;;
45296;SDS011;31040;51.622;10.420;2023-07-13T00:59:54;1.88;;;1.75;;
45296;SDS011;31040;51.622;10.420;2023-07-13T01:02:22;4.50;;;2.08;;
45296;SDS011;31040;51.622;10.420;2023-07-13T01:04:49;3.25;;;1.67;;
45296;SDS011;31040;51.622;10.420;2023-07-13T01:07:17;2.47;;;1.75;;
45296;SDS011;31040;51.622;10.420;2023-07-13T01:09:45;2.40;;;2.20;;
45296;SDS011;31040;51.622;10.420;2023-07-13T01:12:12;2.85;;;1.80;;
45296;SDS011;31040;51.622;10.420;2023-07-13T01:14:40;2.33;;;2.03;;
45296;SDS011;31040;51.622;10.420;2023-07-13T01:17:08;3.13;;;1.70;;
45296;SDS011;31040;51.622;10.420;2023-07-13T01:19:39;3.20;;;1.85;;
45296;SDS011;31040;51.622;10.420;2023-07-13T01:24:35;3.53;;;1.95;;
45296;SDS011;31040;51.622;10.420;2023-07-13T01:27:03;2.03;;;1.70;;
45296;SDS011;31040;51.622;10.420;2023-07-13T01:29:33;2.38;;;1.80;;
45296;SDS011;31040;51.622;10.420;2023-07-13T01:32:00;2.20;;;1.90;;
45296;SDS011;31040;51.622;10.420;2023-07-13T01:34:28;3.97;;;2.00;;
45296;SDS011;31040;51.622;10.420;2023-07-13T01:36:55;2.47;;;1.83;;
45296;SDS011;31040;51.622;10.420;2023-07-13T01:39:23;3.80;;;2.05;;
45296;SDS011;31040;51.622;10.420;2023-07-13T01:41:50;4.57;;;2.33;;
45296;SDS011;31040;51.622;10.420;2023-07-13T01:44:18;3.90;;;1.92;;
45296;SDS011;31040;51.622;10.420;2023-07-13T01:46:45;2.92;;;2.05;;
45296;SDS011;31040;51.622;10.420;2023-07-13T01:49:13;4.07;;;2.20;;
45296;SDS011;31040;51.622;10.420;2023-07-13T01:51:40;2.75;;;2.03;;
45296;SDS011;31040;51.622;10.420;2023-07-13T01:54:08;4.43;;;2.22;;
45296;SDS011;31040;51.622;10.420;2023-07-13T01:56:35;2.15;;;1.95;;
45296;SDS011;31040;51.622;10.420;2023-07-13T01:59:03;2.58;;;2.38;;
45296;SDS011;31040;51.622;10.420;2023-07-13T02:01:30;4.03;;;2.40;;
45296;SDS011;31040;51.622;10.420;2023-07-13T02:03:57;2.55;;;2.15;;
45296;SDS011;31040;51.622;10.420;2023-07-13T02:06:25;3.33;;;2.60;;
45296;SDS011;31040;51.622;10.420;2023-07-13T02:08:52;2.85;;;2.58;;
45296;SDS011;31040;51.622;10.420;2023-07-13T02:11:20;3.35;;;2.42;;
45296;SDS011;31040;51.622;10.420;2023-07-13T02:13:47;3.25;;;2.92;;
45296;SDS011;31040;51.622;10.420;2023-07-13T02:16:15;5.32;;;2.95;;
45296;SDS011;31040;51.622;10.420;2023-07-13T02:18:42;5.18;;;3.10;;
45296;SDS011;31040;51.622;10.420;2023-07-13T02:21:09;4.80;;;3.95;;
45296;SDS011;31040;51.622;10.420;2023-07-13T02:23:37;3.25;;;2.67;;
45296;SDS011;31040;51.622;10.420;2023-07-13T02:26:04;4.13;;;3.00;;
45296;SDS011;31040;51.622;10.420;2023-07-13T02:28:32;2.60;;;2.40;;
45296;SDS011;31040;51.622;10.420;2023-07-13T02:36:16;3.60;;;2.97;;
45296;SDS011;31040;51.622;10.420;2023-07-13T02:38:45;2.75;;;2.47;;
45296;SDS011;31040;51.622;10.420;2023-07-13T02:41:12;3.50;;;3.10;;
45296;SDS011;31040;51.622;10.420;2023-07-13T02:43:39;5.22;;;3.38;;
45296;SDS011;31040;51.622;10.420;2023-07-13T02:46:07;5.60;;;3.88;;
45296;SDS011;31040;51.622;10.420;2023-07-13T02:48:35;3.60;;;3.30;;
45296;SDS011;31040;51.622;10.420;2023-07-13T02:51:03;4.57;;;3.55;;
45296;SDS011;31040;51.622;10.420;2023-07-13T02:53:30;4.93;;;3.25;;
45296;SDS011;31040;51.622;10.420;2023-07-13T02:55:58;5.03;;;3.45;;
45296;SDS011;31040;51.622;10.420;2023-07-13T02:58:26;4.60;;;3.40;;
45296;SDS011;31040;51.622;10.420;2023-07-13T03:00:53;4.60;;;3.90;;
45296;SDS011;31040;51.622;10.420;2023-07-13T03:03:20;5.28;;;4.10;;
45296;SDS011;31040;51.622;10.420;2023-07-13T03:05:48;4.40;;;4.10;;
45296;SDS011;31040;51.622;10.420;2023-07-13T03:08:26;5.10;;;4.03;;
45296;SDS011;31040;51.622;10.420;2023-07-13T03:11:00;4.95;;;4.40;;
45296;SDS011;31040;51.622;10.420;2023-07-13T03:13:28;4.40;;;4.00;;
45296;SDS011;31040;51.622;10.420;2023-07-13T03:15:55;6.20;;;4.30;;
45296;SDS011;31040;51.622;10.420;2023-07-13T03:18:23;6.63;;;4.75;;
45296;SDS011;31040;51.622;10.420;2023-07-13T03:20:51;5.43;;;4.93;;
45296;SDS011;31040;51.622;10.420;2023-07-13T03:23:19;7.22;;;4.82;;
45296;SDS011;31040;51.622;10.420;2023-07-13T03:25:48;5.95;;;5.28;;
45296;SDS011;31040;51.622;10.420;2023-07-13T03:28:15;5.18;;;4.68;;
45296;SDS011;31040;51.622;10.420;2023-07-13T03:30:42;6.60;;;4.88;;
45296;SDS011;31040;51.622;10.420;2023-07-13T03:33:10;4.53;;;4.07;;
45296;SDS011;31040;51.622;10.420;2023-07-13T03:35:40;4.78;;;4.30;;
45296;SDS011;31040;51.622;10.420;2023-07-13T03:38:07;5.88;;;4.22;;
45296;SDS011;31040;51.622;10.420;2023-07-13T03:40:35;4.72;;;4.10;;
45296;SDS011;31040;51.622;10.420;2023-07-13T03:43:03;4.93;;;3.80;;
45296;SDS011;31040;51.622;10.420;2023-07-13T03:45:30;3.83;;;3.38;;
45296;SDS011;31040;51.622;10.420;2023-07-13T03:47:58;5.60;;;4.25;;
45296;SDS011;31040;51.622;10.420;2023-07-13T03:50:25;4.68;;;4.28;;
45296;SDS011;31040;51.622;10.420;2023-07-13T03:52:53;6.75;;;4.30;;
45296;SDS011;31040;51.622;10.420;2023-07-13T03:55:22;5.18;;;3.95;;
45296;SDS011;31040;51.622;10.420;2023-07-13T03:57:53;5.80;;;4.50;;
45296;SDS011;31040;51.622;10.420;2023-07-13T04:00:21;7.93;;;4.82;;
45296;SDS011;31040;51.622;10.420;2023-07-13T04:02:49;4.15;;;3.83;;
45296;SDS011;31040;51.622;10.420;2023-07-13T04:05:16;4.40;;;4.00;;
45296;SDS011;31040;51.622;10.420;2023-07-13T04:07:43;4.63;;;3.58;;
45296;SDS011;31040;51.622;10.420;2023-07-13T04:10:11;4.03;;;3.58;;
45296;SDS011;31040;51.622;10.420;2023-07-13T04:12:38;4.65;;;3.42;;
45296;SDS011;31040;51.622;10.420;2023-07-13T04:15:06;3.63;;;3.30;;
45296;SDS011;31040;51.622;10.420;2023-07-13T04:17:33;4.78;;;3.67;;
45296;SDS011;31040;51.622;10.420;2023-07-13T04:20:01;5.45;;;3.63;;
45296;SDS011;31040;51.622;10.420;2023-07-13T04:22:28;5.97;;;3.30;;
45296;SDS011;31040;51.622;10.420;2023-07-13T04:24:56;5.00;;;3.80;;
45296;SDS011;31040;51.622;10.420;2023-07-13T04:27:23;9.00;;;4.03;;
45296;SDS011;31040;51.622;10.420;2023-07-13T04:29:51;7.05;;;3.88;;
45296;SDS011;31040;51.622;10.420;2023-07-13T04:32:18;5.80;;;3.85;;
45296;SDS011;31040;51.622;10.420;2023-07-13T04:34:48;7.10;;;3.92;;
45296;SDS011;31040;51.622;10.420;2023-07-13T04:37:20;4.60;;;3.45;;
45296;SDS011;31040;51.622;10.420;2023-07-13T04:39:48;6.88;;;3.22;;
45296;SDS011;31040;51.622;10.420;2023-07-13T04:42:15;3.90;;;3.20;;
45296;SDS011;31040;51.622;10.420;2023-07-13T04:44:47;5.93;;;3.40;;
45296;SDS011;31040;51.622;10.420;2023-07-13T04:47:15;5.40;;;3.53;;
45296;SDS011;31040;51.622;10.420;2023-07-13T04:49:42;6.75;;;3.70;;
45296;SDS011;31040;51.622;10.420;2023-07-13T04:52:10;7.88;;;3.42;;
45296;SDS011;31040;51.622;10.420;2023-07-13T04:54:38;7.88;;;3.40;;
45296;SDS011;31040;51.622;10.420;2023-07-13T04:57:05;4.32;;;3.42;;
45296;SDS011;31040;51.622;10.420;2023-07-13T04:59:33;3.83;;;3.20;;
45296;SDS011;31040;51.622;10.420;2023-07-13T05:02:01;4.90;;;3.58;;
45296;SDS011;31040;51.622;10.420;2023-07-13T05:04:28;4.32;;;3.88;;
45296;SDS011;31040;51.622;10.420;2023-07-13T05:06:56;7.88;;;4.80;;
45296;SDS011;31040;51.622;10.420;2023-07-13T05:09:23;6.57;;;3.78;;
45296;SDS011;31040;51.622;10.420;2023-07-13T05:11:50;4.97;;;4.03;;
45296;SDS011;31040;51.622;10.420;2023-07-13T05:14:18;4.80;;;3.45;;
45296;SDS011;31040;51.622;10.420;2023-07-13T05:16:45;8.00;;;3.80;;
45296;SDS011;31040;51.622;10.420;2023-07-13T05:19:13;3.65;;;3.35;;
45296;SDS011;31040;51.622;10.420;2023-07-13T05:21:43;5.22;;;3.53;;
45296;SDS011;31040;51.622;10.420;2023-07-13T05:24:10;4.90;;;3.33;;
45296;SDS011;31040;51.622;10.420;2023-07-13T05:26:50;5.88;;;3.55;;
45296;SDS011;31040;51.622;10.420;2023-07-13T05:29:18;3.83;;;3.42;;
45296;SDS011;31040;51.622;10.420;2023-07-13T05:31:45;4.07;;;3.47;;
45296;SDS011;31040;51.622;10.420;2023-07-13T05:34:13;6.85;;;3.13;;
45296;SDS011;31040;51.622;10.420;2023-07-13T05:36:40;3.60;;;3.20;;
45296;SDS011;31040;51.622;10.420;2023-07-13T05:39:08;5.82;;;3.25;;
45296;SDS011;31040;51.622;10.420;2023-07-13T05:41:35;4.47;;;3.47;;
45296;SDS011;31040;51.622;10.420;2023-07-13T05:44:03;4.45;;;2.75;;
45296;SDS011;31040;51.622;10.420;2023-07-13T05:46:30;6.75;;;2.42;;
45296;SDS011;31040;51.622;10.420;2023-07-13T05:48:58;6.50;;;3.25;;
45296;SDS011;31040;51.622;10.420;2023-07-13T05:51:25;5.57;;;2.60;;
45296;SDS011;31040;51.622;10.420;2023-07-13T05:53:53;4.85;;;2.53;;
45296;SDS011;31040;51.622;10.420;2023-07-13T05:56:20;5.55;;;2.35;;
45296;SDS011;31040;51.622;10.420;2023-07-13T05:58:48;3.88;;;2.25;;
45296;SDS011;31040;51.622;10.420;2023-07-13T06:01:16;3.50;;;2.70;;
45296;SDS011;31040;51.622;10.420;2023-07-13T06:03:44;3.63;;;2.47;;
45296;SDS011;31040;51.622;10.420;2023-07-13T06:06:11;5.40;;;2.95;;
45296;SDS011;31040;51.622;10.420;2023-07-13T06:08:39;5.30;;;2.30;;
45296;SDS011;31040;51.622;10.420;2023-07-13T06:11:12;5.13;;;2.58;;
45296;SDS011;31040;51.622;10.420;2023-07-13T06:13:40;6.07;;;2.50;;
45296;SDS011;31040;51.622;10.420;2023-07-13T06:16:07;5.43;;;2.67;;
45296;SDS011;31040;51.622;10.420;2023-07-13T06:18:35;5.97;;;2.65;;
45296;SDS011;31040;51.622;10.420;2023-07-13T06:21:11;5.40;;;2.65;;
45296;SDS011;31040;51.622;10.420;2023-07-13T06:23:39;5.00;;;2.33;;
45296;SDS011;31040;51.622;10.420;2023-07-13T06:26:07;6.28;;;2.10;;
45296;SDS011;31040;51.622;10.420;2023-07-13T06:28:35;4.97;;;2.55;;
45296;SDS011;31040;51.622;10.420;2023-07-13T06:31:04;3.42;;;2.25;;
45296;SDS011;31040;51.622;10.420;2023-07-13T06:33:32;4.25;;;2.55;;
45296;SDS011;31040;51.622;10.420;2023-07-13T06:36:01;4.35;;;2.58;;
45296;SDS011;31040;51.622;10.420;2023-07-13T06:38:28;6.15;;;2.72;;
45296;SDS011;31040;51.622;10.420;2023-07-13T06:40:56;6.00;;;2.67;;
45296;SDS011;31040;51.622;10.420;2023-07-13T06:43:24;3.53;;;2.47;;
45296;SDS011;31040;51.622;10.420;2023-07-13T06:45:54;4.13;;;2.88;;
45296;SDS011;31040;51.622;10.420;2023-07-13T06:48:22;2.88;;;2.20;;
45296;SDS011;31040;51.622;10.420;2023-07-13T06:50:49;6.03;;;2.63;;
45296;SDS011;31040;51.622;10.420;2023-07-13T06:53:18;9.77;;;2.97;;
45296;SDS011;31040;51.622;10.420;2023-07-13T06:55:46;5.82;;;2.35;;
45296;SDS011;31040;51.622;10.420;2023-07-13T06:58:15;3.80;;;2.67;;
45296;SDS011;31040;51.622;10.420;2023-07-13T07:00:42;8.70;;;3.22;;
45296;SDS011;31040;51.622;10.420;2023-07-13T07:03:10;6.00;;;3.10;;
45296;SDS011;31040;51.622;10.420;2023-07-13T07:05:38;7.47;;;3.05;;
45296;SDS011;31040;51.622;10.420;2023-07-13T07:08:05;7.10;;;2.70;;
45296;SDS011;31040;51.622;10.420;2023-07-13T07:10:33;10.27;;;3.17;;
45296;SDS011;31040;51.622;10.420;2023-07-13T07:13:01;6.85;;;2.50;;
45296;SDS011;31040;51.622;10.420;2023-07-13T07:15:28;4.15;;;2.00;;
45296;SDS011;31040;51.622;10.420;2023-07-13T07:17:56;6.80;;;2.08;;
45296;SDS011;31040;51.622;10.420;2023-07-13T07:20:23;3.45;;;1.60;;
45296;SDS011;31040;51.622;10.420;2023-07-13T07:22:51;5.03;;;1.98;;
45296;SDS011;31040;51.622;10.420;2023-07-13T07:25:18;8.50;;;1.70;;
45296;SDS011;31040;51.622;10.420;2023-07-13T07:27:46;5.15;;;1.60;;
45296;SDS011;31040;51.622;10.420;2023-07-13T07:30:16;7.40;;;1.95;;
45296;SDS011;31040;51.622;10.420;2023-07-13T07:32:46;2.67;;;1.35;;
45296;SDS011;31040;51.622;10.420;2023-07-13T07:35:17;5.88;;;1.67;;
45296;SDS011;31040;51.622;10.420;2023-07-13T07:37:44;6.97;;;1.95;;
45296;SDS011;31040;51.622;10.420;2023-07-13T07:40:14;4.30;;;1.52;;
45296;SDS011;31040;51.622;10.420;2023-07-13T07:42:45;2.88;;;1.40;;
45296;SDS011;31040;51.622;10.420;2023-07-13T07:45:13;6.10;;;1.65;;
45296;SDS011;31040;51.622;10.420;2023-07-13T07:47:41;3.75;;;1.60;;
45296;SDS011;31040;51.622;10.420;2023-07-13T07:50:08;2.15;;;1.30;;
45296;SDS011;31040;51.622;10.420;2023-07-13T07:52:36;2.88;;;1.40;;
45296;SDS011;31040;51.622;10.420;2023-07-13T07:55:04;5.30;;;1.55;;
45296;SDS011;31040;51.622;10.420;2023-07-13T07:57:35;3.38;;;1.48;;
45296;SDS011;31040;51.622;10.420;2023-07-13T08:00:05;4.22;;;1.27;;
45296;SDS011;31040;51.622;10.420;2023-07-13T08:02:36;4.68;;;1.60;;
45296;SDS011;31040;51.622;10.420;2023-07-13T08:05:07;3.85;;;1.08;;
45296;SDS011;31040;51.622;10.420;2023-07-13T08:07:38;3.90;;;1.60;;
45296;SDS011;31040;51.622;10.420;2023-07-13T08:10:06;7.22;;;1.50;;
45296;SDS011;31040;51.622;10.420;2023-07-13T08:12:35;6.82;;;1.73;;
45296;SDS011;31040;51.622;10.420;2023-07-13T08:15:06;3.15;;;1.40;;
45296;SDS011;31040;51.622;10.420;2023-07-13T08:17:34;5.90;;;1.35;;
45296;SDS011;31040;51.622;10.420;2023-07-13T08:20:01;1.95;;;1.27;;
45296;SDS011;31040;51.622;10.420;2023-07-13T08:22:29;3.97;;;1.67;;
45296;SDS011;31040;51.622;10.420;2023-07-13T08:24:56;3.50;;;1.27;;
45296;SDS011;31040;51.622;10.420;2023-07-13T08:27:25;4.03;;;1.30;;
45296;SDS011;31040;51.622;10.420;2023-07-13T08:29:53;2.95;;;1.48;;
45296;SDS011;31040;51.622;10.420;2023-07-13T08:32:21;6.00;;;1.42;;
45296;SDS011;31040;51.622;10.420;2023-07-13T08:34:49;8.48;;;1.55;;
45296;SDS011;31040;51.622;10.420;2023-07-13T08:37:17;4.97;;;1.30;;
45296;SDS011;31040;51.622;10.420;2023-07-13T08:39:45;3.33;;;1.13;;
45296;SDS011;31040;51.622;10.420;2023-07-13T08:45:21;3.08;;;1.35;;
45296;SDS011;31040;51.622;10.420;2023-07-13T08:47:52;2.58;;;1.25;;
45296;SDS011;31040;51.622;10.420;2023-07-13T08:50:23;2.08;;;1.27;;
45296;SDS011;31040;51.622;10.420;2023-07-13T08:52:51;5.22;;;1.35;;
45296;SDS011;31040;51.622;10.420;2023-07-13T08:55:20;4.63;;;1.85;;
45296;SDS011;31040;51.622;10.420;2023-07-13T08:57:50;5.05;;;1.55;;
45296;SDS011;31040;51.622;10.420;2023-07-13T09:00:20;2.67;;;1.30;;
45296;SDS011;31040;51.622;10.420;2023-07-13T09:02:52;3.53;;;1.75;;
45296;SDS011;31040;51.622;10.420;2023-07-13T09:10:32;3.50;;;1.85;;
45296;SDS011;31040;51.622;10.420;2023-07-13T09:15:35;2.47;;;1.08;;
45296;SDS011;31040;51.622;10.420;2023-07-13T09:18:51;2.25;;;1.30;;
45296;SDS011;31040;51.622;10.420;2023-07-13T09:23:20;4.07;;;1.40;;
45296;SDS011;31040;51.622;10.420;2023-07-13T09:25:49;3.25;;;1.38;;
45296;SDS011;31040;51.622;10.420;2023-07-13T09:28:26;1.35;;;0.88;;
45296;SDS011;31040;51.622;10.420;2023-07-13T09:33:40;3.65;;;1.30;;
45296;SDS011;31040;51.622;10.420;2023-07-13T09:38:41;1.73;;;1.08;;
45296;SDS011;31040;51.622;10.420;2023-07-13T09:41:23;2.08;;;0.82;;
45296;SDS011;31040;51.622;10.420;2023-07-13T09:44:12;1.83;;;0.90;;
45296;SDS011;31040;51.622;10.420;2023-07-13T09:46:44;1.85;;;1.02;;
45296;SDS011;31040;51.622;10.420;2023-07-13T09:49:13;3.20;;;1.10;;
45296;SDS011;31040;51.622;10.420;2023-07-13T09:51:41;2.38;;;1.00;;
45296;SDS011;31040;51.622;10.420;2023-07-13T09:54:18;3.05;;;1.20;;
45296;SDS011;31040;51.622;10.420;2023-07-13T09:56:46;4.03;;;1.10;;
45296;SDS011;31040;51.622;10.420;2023-07-13T09:59:18;2.65;;;0.63;;
45296;SDS011;31040;51.622;10.420;2023-07-13T10:01:46;2.95;;;1.15;;
45296;SDS011;31040;51.622;10.420;2023-07-13T10:04:17;3.53;;;1.27;;
45296;SDS011;31040;51.622;10.420;2023-07-13T10:06:45;3.30;;;1.08;;
45296;SDS011;31040;51.622;10.420;2023-07-13T10:09:16;1.70;;;1.10;;
45296;SDS011;31040;51.622;10.420;2023-07-13T10:11:45;2.67;;;1.35;;
45296;SDS011;31040;51.622;10.420;2023-07-13T10:14:20;2.92;;;1.02;;
45296;SDS011;31040;51.622;10.420;2023-07-13T10:16:49;2.10;;;1.10;;
45296;SDS011;31040;51.622;10.420;2023-07-13T10:19:24;1.80;;;1.00;;
45296;SDS011;31040;51.622;10.420;2023-07-13T10:21:54;2.83;;;1.30;;
45296;SDS011;31040;51.622;10.420;2023-07-13T10:24:23;3.53;;;1.15;;
45296;SDS011;31040;51.622;10.420;2023-07-13T10:27:01;5.78;;;1.45;;
45296;SDS011;31040;51.622;10.420;2023-07-13T10:29:32;3.85;;;1.40;;
45296;SDS011;31040;51.622;10.420;2023-07-13T10:32:02;4.20;;;1.38;;
45296;SDS011;31040;51.622;10.420;2023-07-13T10:34:30;1.42;;;1.00;;
45296;SDS011;31040;51.622;10.420;2023-07-13T10:36:59;3.00;;;1.00;;
45296;SDS011;31040;51.622;10.420;2023-07-13T10:39:28;4.80;;;1.13;;
45296;SDS011;31040;51.622;10.420;2023-07-13T10:42:01;3.40;;;1.10;;
45296;SDS011;31040;51.622;10.420;2023-07-13T10:44:31;2.13;;;1.03;;
45296;SDS011;31040;51.622;10.420;2023-07-13T10:47:00;3.88;;;1.02;;
45296;SDS011;31040;51.622;10.420;2023-07-13T10:49:29;1.05;;;0.90;;
45296;SDS011;31040;51.622;10.420;2023-07-13T10:51:57;2.72;;;1.13;;
45296;SDS011;31040;51.622;10.420;2023-07-13T10:54:32;1.85;;;1.20;;
45296;SDS011;31040;51.622;10.420;2023-07-13T10:57:17;2.45;;;1.30;;
45296;SDS011;31040;51.622;10.420;2023-07-13T10:59:47;4.82;;;1.10;;
45296;SDS011;31040;51.622;10.420;2023-07-13T11:02:26;1.65;;;0.93;;
45296;SDS011;31040;51.622;10.420;2023-07-13T11:04:55;3.20;;;0.95;;
45296;SDS011;31040;51.622;10.420;2023-07-13T11:07:27;2.22;;;1.05;;
45296;SDS011;31040;51.622;10.420;2023-07-13T11:09:56;3.35;;;1.17;;
45296;SDS011;31040;51.622;10.420;2023-07-13T11:19:53;2.20;;;0.90;;
45296;SDS011;31040;51.622;10.420;2023-07-13T11:22:22;2.78;;;1.10;;
45296;SDS011;31040;51.622;10.420;2023-07-13T11:24:51;3.30;;;0.95;;
45296;SDS011;31040;51.622;10.420;2023-07-13T11:29:49;2.38;;;0.90;;
45296;SDS011;31040;51.622;10.420;2023-07-13T11:32:24;4.47;;;0.80;;
45296;SDS011;31040;51.622;10.420;2023-07-13T11:34:53;0.82;;;0.80;;
45296;SDS011;31040;51.622;10.420;2023-07-13T11:37:21;2.05;;;0.90;;
45296;SDS011;31040;51.622;10.420;2023-07-13T11:39:49;3.65;;;1.08;;
45296;SDS011;31040;51.622;10.420;2023-07-13T11:42:18;3.88;;;1.33;;
45296;SDS011;31040;51.622;10.420;2023-07-13T11:44:48;2.35;;;1.17;;
45296;SDS011;31040;51.622;10.420;2023-07-13T11:47:34;2.85;;;0.95;;
45296;SDS011;31040;51.622;10.420;2023-07-13T11:50:01;2.08;;;0.90;;
45296;SDS011;31040;51.622;10.420;2023-07-13T11:52:32;2.35;;;1.15;;
45296;SDS011;31040;51.622;10.420;2023-07-13T11:55:01;2.13;;;1.25;;
45296;SDS011;31040;51.622;10.420;2023-07-13T11:57:30;2.58;;;1.13;;
45296;SDS011;31040;51.622;10.420;2023-07-13T12:00:04;1.75;;;0.90;;
45296;SDS011;31040;51.622;10.420;2023-07-13T12:02:33;2.75;;;1.17;;
45296;SDS011;31040;51.622;10.420;2023-07-13T12:05:01;1.27;;;1.13;;
45296;SDS011;31040;51.622;10.420;2023-07-13T12:07:30;3.40;;;0.90;;
45296;SDS011;31040;51.622;10.420;2023-07-13T12:10:18;3.03;;;1.40;;
45296;SDS011;31040;51.622;10.420;2023-07-13T12:12:56;5.15;;;1.80;;
45296;SDS011;31040;51.622;10.420;2023-07-13T12:15:27;3.15;;;1.25;;
45296;SDS011;31040;51.622;10.420;2023-07-13T12:17:55;4.20;;;1.40;;
45296;SDS011;31040;51.622;10.420;2023-07-13T12:20:24;4.53;;;1.10;;
45296;SDS011;31040;51.622;10.420;2023-07-13T12:22:52;3.65;;;1.10;;
45296;SDS011;31040;51.622;10.420;2023-07-13T12:25:20;2.05;;;1.05;;
45296;SDS011;31040;51.622;10.420;2023-07-13T12:27:49;3.95;;;0.90;;
45296;SDS011;31040;51.622;10.420;2023-07-13T12:30:24;2.78;;;1.55;;
45296;SDS011;31040;51.622;10.420;2023-07-13T12:32:56;1.30;;;1.20;;
45296;SDS011;31040;51.622;10.420;2023-07-13T12:35:24;2.97;;;1.10;;
45296;SDS011;31040;51.622;10.420;2023-07-13T12:37:53;4.00;;;1.02;;
45296;SDS011;31040;51.622;10.420;2023-07-13T12:40:20;2.95;;;1.10;;
45296;SDS011;31040;51.622;10.420;2023-07-13T12:42:49;1.80;;;0.90;;
45296;SDS011;31040;51.622;10.420;2023-07-13T12:45:19;2.72;;;0.85;;
45296;SDS011;31040;51.622;10.420;2023-07-13T12:47:52;1.42;;;0.90;;
45296;SDS011;31040;51.622;10.420;2023-07-13T12:50:21;2.13;;;1.20;;
45296;SDS011;31040;51.622;10.420;2023-07-13T12:52:56;3.78;;;1.33;;
45296;SDS011;31040;51.622;10.420;2023-07-13T12:55:27;1.40;;;1.05;;
45296;SDS011;31040;51.622;10.420;2023-07-13T12:57:59;2.45;;;1.33;;
45296;SDS011;31040;51.622;10.420;2023-07-13T13:03:33;2.63;;;1.10;;
45296;SDS011;31040;51.622;10.420;2023-07-13T13:05:57;2.90;;;0.95;;
45296;SDS011;31040;51.622;10.420;2023-07-13T13:08:26;4.35;;;1.08;;
45296;SDS011;31040;51.622;10.420;2023-07-13T13:10:53;4.88;;;1.30;;
45296;SDS011;31040;51.622;10.420;2023-07-13T13:13:21;2.28;;;0.90;;
45296;SDS011;31040;51.622;10.420;2023-07-13T13:15:48;2.60;;;1.10;;
45296;SDS011;31040;51.622;10.420;2023-07-13T13:18:16;2.92;;;1.10;;
45296;SDS011;31040;51.622;10.420;2023-07-13T13:20:44;2.28;;;1.05;;
45296;SDS011;31040;51.622;10.420;2023-07-13T13:23:13;2.38;;;1.30;;
45296;SDS011;31040;51.622;10.420;2023-07-13T13:25:45;1.88;;;1.13;;
45296;SDS011;31040;51.622;10.420;2023-07-13T13:28:16;0.93;;;0.90;;
45296;SDS011;31040;51.622;10.420;2023-07-13T13:30:45;4.57;;;1.17;;
45296;SDS011;31040;51.622;10.420;2023-07-13T13:33:14;5.10;;;1.58;;
45296;SDS011;31040;51.622;10.420;2023-07-13T13:35:42;1.30;;;1.20;;
45296;SDS011;31040;51.622;10.420;2023-07-13T13:38:19;3.05;;;1.17;;
45296;SDS011;31040;51.622;10.420;2023-07-13T13:40:47;2.03;;;1.13;;
45296;SDS011;31040;51.622;10.420;2023-07-13T13:43:18;2.30;;;1.17;;
45296;SDS011;31040;51.622;10.420;2023-07-13T13:45:46;4.63;;;1.38;;
45296;SDS011;31040;51.622;10.420;2023-07-13T13:48:14;2.58;;;1.20;;
45296;SDS011;31040;51.622;10.420;2023-07-13T13:50:42;4.45;;;1.60;;
45296;SDS011;31040;51.622;10.420;2023-07-13T13:53:11;3.83;;;1.40;;
45296;SDS011;31040;51.622;10.420;2023-07-13T13:55:40;2.90;;;1.35;;
45296;SDS011;31040;51.622;10.420;2023-07-13T13:58:08;3.15;;;1.20;;
45296;SDS011;31040;51.622;10.420;2023-07-13T14:00:37;2.22;;;1.20;;
45296;SDS011;31040;51.622;10.420;2023-07-13T14:03:13;3.60;;;1.42;;
45296;SDS011;31040;51.622;10.420;2023-07-13T14:05:41;2.13;;;1.20;;
45296;SDS011;31040;51.622;10.420;2023-07-13T14:08:19;5.20;;;1.80;;
45296;SDS011;31040;51.622;10.420;2023-07-13T14:10:47;2.38;;;1.67;;
45296;SDS011;31040;51.622;10.420;2023-07-13T14:13:19;3.28;;;1.40;;
45296;SDS011;31040;51.622;10.420;2023-07-13T14:15:48;1.13;;;0.95;;
45296;SDS011;31040;51.622;10.420;2023-07-13T14:18:16;1.90;;;1.55;;
45296;SDS011;31040;51.622;10.420;2023-07-13T14:20:45;2.42;;;1.17;;
45296;SDS011;31040;51.622;10.420;2023-07-13T14:23:13;2.15;;;1.40;;
45296;SDS011;31040;51.622;10.420;2023-07-13T14:25:42;3.13;;;1.70;;
45296;SDS011;31040;51.622;10.420;2023-07-13T14:30:46;5.07;;;1.50;;
45296;SDS011;31040;51.622;10.420;2023-07-13T14:33:14;2.03;;;1.23;;
45296;SDS011;31040;51.622;10.420;2023-07-13T14:35:41;2.05;;;1.55;;
45296;SDS011;31040;51.622;10.420;2023-07-13T14:38:13;2.17;;;1.45;;
45296;SDS011;31040;51.622;10.420;2023-07-13T14:40:41;2.33;;;1.80;;
45296;SDS011;31040;51.622;10.420;2023-07-13T14:43:15;4.35;;;1.58;;
45296;SDS011;31040;51.622;10.420;2023-07-13T14:45:44;3.85;;;1.42;;
45296;SDS011;31040;51.622;10.420;2023-07-13T14:48:20;4.93;;;1.63;;
45296;SDS011;31040;51.622;10.420;2023-07-13T14:50:53;3.30;;;1.55;;
45296;SDS011;31040;51.622;10.420;2023-07-13T14:53:22;2.78;;;1.48;;
45296;SDS011;31040;51.622;10.420;2023-07-13T14:55:50;1.88;;;1.40;;
45296;SDS011;31040;51.622;10.420;2023-07-13T14:58:18;2.53;;;1.45;;
45296;SDS011;31040;51.622;10.420;2023-07-13T15:00:45;2.13;;;1.55;;
45296;SDS011;31040;51.622;10.420;2023-07-13T15:03:17;4.38;;;1.40;;
45296;SDS011;31040;51.622;10.420;2023-07-13T15:05:46;1.85;;;1.20;;
45296;SDS011;31040;51.622;10.420;2023-07-13T15:08:13;1.90;;;1.38;;
45296;SDS011;31040;51.622;10.420;2023-07-13T15:10:40;1.30;;;1.10;;
45296;SDS011;31040;51.622;10.420;2023-07-13T15:13:15;2.42;;;1.30;;
45296;SDS011;31040;51.622;10.420;2023-07-13T15:18:14;1.73;;;1.63;;
45296;SDS011;31040;51.622;10.420;2023-07-13T15:20:43;10.15;;;1.75;;
45296;SDS011;31040;51.622;10.420;2023-07-13T15:23:12;2.63;;;1.50;;
45296;SDS011;31040;51.622;10.420;2023-07-13T15:25:40;2.55;;;1.88;;
45296;SDS011;31040;51.622;10.420;2023-07-13T15:28:07;2.45;;;1.83;;
45296;SDS011;31040;51.622;10.420;2023-07-13T15:30:42;2.75;;;1.73;;